createdAt,value
2023-02-28T00:00:11.625Z,45.36
2023-02-28T00:02:39.681Z,45.27
2023-02-28T00:05:09.454Z,45.45
2023-02-28T00:07:39.728Z,45.69
2023-02-28T00:10:09.504Z,45.69
2023-02-28T00:12:38.831Z,45.60
2023-02-28T00:15:08.859Z,45.92
2023-02-28T00:17:39.275Z,45.71
2023-02-28T00:20:09.687Z,45.82
2023-02-28T00:22:41.443Z,46.01
2023-02-28T00:25:11.361Z,45.94
2023-02-28T00:27:41.190Z,45.92
2023-02-28T00:30:12.701Z,45.98
2023-02-28T00:32:41.608Z,45.95
2023-02-28T00:35:11.642Z,45.99
2023-02-28T00:37:41.706Z,46.04
2023-02-28T00:40:12.600Z,46.05
2023-02-28T00:42:41.270Z,46.21
2023-02-28T00:45:10.734Z,46.06
2023-02-28T00:47:38.952Z,46.08
2023-02-28T00:50:08.618Z,46.12
2023-02-28T00:52:37.538Z,46.19
2023-02-28T00:55:07.437Z,46.10
2023-02-28T00:57:35.721Z,46.06
2023-02-28T01:00:04.864Z,46.22
2023-02-28T01:02:33.802Z,46.17
2023-02-28T01:05:02.112Z,46.19
2023-02-28T01:07:30.398Z,45.98
2023-02-28T01:09:58.480Z,45.95
2023-02-28T01:12:30.539Z,46.03
2023-02-28T01:15:00.180Z,45.94
2023-02-28T01:17:29.173Z,46.04
2023-02-28T01:19:58.092Z,46.12
2023-02-28T01:22:26.365Z,46.23
2023-02-28T01:24:54.591Z,46.37
2023-02-28T01:27:22.741Z,46.12
2023-02-28T01:29:53.549Z,46.35
2023-02-28T01:32:22.476Z,46.52
2023-02-28T01:34:50.622Z,46.37
2023-02-28T01:37:19.022Z,46.49
2023-02-28T01:39:48.319Z,46.56
2023-02-28T01:42:16.697Z,46.62
2023-02-28T01:45:18.785Z,46.36
2023-02-28T01:47:50.554Z,46.45
2023-02-28T01:50:21.764Z,46.67
2023-02-28T01:52:51.246Z,46.44
2023-02-28T01:55:22.938Z,46.40
2023-02-28T01:57:54.345Z,46.33
2023-02-28T02:00:27.887Z,46.27
2023-02-28T02:03:02.582Z,46.22
2023-02-28T02:05:33.348Z,46.27
2023-02-28T02:08:06.440Z,46.49
2023-02-28T02:10:37.763Z,46.53
2023-02-28T02:13:24.375Z,46.40
2023-02-28T02:16:04.911Z,46.57
2023-02-28T02:18:40.867Z,46.24
2023-02-28T02:21:48.302Z,46.00
2023-02-28T02:24:50.395Z,46.34
2023-02-28T02:27:28.495Z,46.51
2023-02-28T02:30:20.624Z,46.47
2023-02-28T02:33:28.020Z,46.68
2023-02-28T02:36:02.359Z,46.41
2023-02-28T02:38:36.865Z,46.71
2023-02-28T02:41:13.109Z,46.71
2023-02-28T02:43:47.504Z,46.70
2023-02-28T02:46:19.991Z,46.28
2023-02-28T02:48:49.777Z,46.36
2023-02-28T02:51:24.145Z,46.60
2023-02-28T02:53:56.803Z,46.54
2023-02-28T02:56:29.593Z,46.59
2023-02-28T02:59:04.612Z,46.82
2023-02-28T03:01:34.650Z,46.55
2023-02-28T03:04:05.502Z,46.63
2023-02-28T03:06:36.368Z,46.78
2023-02-28T03:09:05.878Z,46.63
2023-02-28T03:11:38.889Z,46.81
2023-02-28T03:14:25.462Z,46.67
2023-02-28T03:17:22.184Z,46.70
2023-02-28T03:19:57.938Z,46.77
2023-02-28T03:22:54.345Z,46.51
2023-02-28T03:25:32.015Z,46.83
2023-02-28T03:28:08.638Z,46.60
2023-02-28T03:30:44.188Z,46.75
2023-02-28T03:33:16.964Z,46.81
2023-02-28T03:35:50.854Z,46.82
2023-02-28T03:38:24.643Z,46.69
2023-02-28T03:41:06.881Z,46.68
2023-02-28T03:43:39.166Z,46.38
2023-02-28T03:46:12.513Z,46.91
2023-02-28T03:48:46.585Z,46.65
2023-02-28T03:51:19.486Z,46.58
2023-02-28T03:53:54.602Z,46.60
2023-02-28T03:56:26.968Z,46.52
2023-02-28T03:59:01.213Z,46.71
2023-02-28T04:01:34.847Z,46.79
2023-02-28T04:04:03.320Z,46.95
2023-02-28T04:06:34.341Z,46.83
2023-02-28T04:09:05.750Z,46.84
2023-02-28T04:11:37.658Z,46.60
2023-02-28T04:14:07.138Z,46.93
2023-02-28T04:16:36.771Z,46.61
2023-02-28T04:19:06.427Z,46.37
2023-02-28T04:21:36.656Z,46.41
2023-02-28T04:24:07.323Z,46.41
2023-02-28T04:26:37.351Z,46.38
2023-02-28T04:29:06.993Z,46.77
2023-02-28T04:31:35.783Z,46.42
2023-02-28T04:34:04.393Z,46.40
2023-02-28T04:36:32.444Z,46.88
2023-02-28T04:39:01.047Z,46.23
2023-02-28T04:41:33.830Z,46.27
2023-02-28T04:44:02.097Z,46.23
2023-02-28T04:46:30.109Z,46.21
2023-02-28T04:48:58.332Z,46.41
2023-02-28T04:51:26.603Z,46.25
2023-02-28T04:53:55.239Z,46.22
2023-02-28T04:56:23.816Z,46.26
2023-02-28T04:58:56.421Z,46.16
2023-02-28T05:01:26.675Z,46.23
2023-02-28T05:03:56.279Z,46.23
2023-02-28T05:06:25.920Z,46.26
2023-02-28T05:08:54.578Z,46.39
2023-02-28T05:11:25.971Z,46.46
2023-02-28T05:13:56.294Z,46.23
2023-02-28T05:16:24.647Z,46.66
2023-02-28T05:18:54.884Z,46.43
2023-02-28T05:21:29.753Z,46.22
2023-02-28T05:23:59.187Z,46.56
2023-02-28T05:26:28.226Z,46.64
2023-02-28T05:28:58.124Z,46.61
2023-02-28T05:31:26.354Z,46.82
2023-02-28T05:33:55.816Z,46.55
2023-02-28T05:36:24.390Z,46.66
2023-02-28T05:38:53.193Z,46.84
2023-02-28T05:41:22.959Z,46.76
2023-02-28T05:43:51.192Z,46.74
2023-02-28T05:46:20.611Z,46.35
2023-02-28T05:48:49.949Z,46.86
2023-02-28T05:51:18.194Z,46.82
2023-02-28T05:53:46.432Z,47.00
2023-02-28T05:56:14.491Z,46.91
2023-02-28T05:58:42.883Z,47.09
2023-02-28T06:01:34.402Z,47.10
2023-02-28T06:04:02.975Z,47.23
2023-02-28T06:06:31.776Z,47.06
2023-02-28T06:08:59.997Z,47.34
2023-02-28T06:11:29.388Z,47.41
2023-02-28T06:14:00.970Z,47.38
2023-02-28T06:16:32.218Z,47.29
2023-02-28T06:19:02.454Z,47.11
2023-02-28T06:21:31.292Z,47.09
2023-02-28T06:24:00.188Z,47.32
2023-02-28T06:26:28.517Z,47.10
2023-02-28T06:28:56.795Z,47.01
2023-02-28T06:31:27.071Z,47.04
2023-02-28T06:33:57.062Z,46.92
2023-02-28T06:36:25.432Z,47.00
2023-02-28T06:38:56.352Z,46.82
2023-02-28T06:41:25.768Z,46.85
2023-02-28T06:43:55.003Z,46.94
2023-02-28T06:46:23.433Z,46.66
2023-02-28T06:48:52.073Z,46.79
2023-02-28T06:51:25.427Z,46.42
2023-02-28T06:53:53.621Z,46.50
2023-02-28T06:56:22.578Z,46.66
2023-02-28T06:58:51.705Z,46.65
2023-02-28T07:01:20.177Z,46.40
2023-02-28T07:03:53.454Z,46.42
2023-02-28T07:06:24.847Z,46.41
2023-02-28T07:08:54.107Z,46.42
2023-02-28T07:11:23.758Z,46.41
2023-02-28T07:13:52.061Z,46.38
2023-02-28T07:16:21.948Z,46.24
2023-02-28T07:18:50.565Z,46.59
2023-02-28T07:21:18.566Z,46.40
2023-02-28T07:23:50.039Z,46.11
2023-02-28T07:26:19.554Z,46.18
2023-02-28T07:28:49.970Z,46.44
2023-02-28T07:31:19.626Z,46.25
2023-02-28T07:33:48.107Z,46.42
2023-02-28T07:36:21.412Z,46.30
2023-02-28T07:38:52.063Z,45.88
2023-02-28T07:41:22.053Z,46.03
2023-02-28T07:43:50.873Z,46.47
2023-02-28T07:46:21.525Z,46.53
2023-02-28T07:48:50.214Z,46.34
2023-02-28T07:51:18.622Z,46.30
2023-02-28T07:53:47.017Z,46.28
2023-02-28T07:56:16.599Z,46.39
2023-02-28T07:58:44.898Z,46.34
2023-02-28T08:01:13.690Z,46.58
2023-02-28T08:03:42.398Z,46.53
2023-02-28T08:06:18.365Z,46.58
2023-02-28T08:08:47.324Z,46.55
2023-02-28T08:11:19.429Z,46.44
2023-02-28T08:13:51.075Z,46.35
2023-02-28T08:16:23.407Z,46.56
2023-02-28T08:18:53.098Z,46.24
2023-02-28T08:21:23.615Z,46.63
2023-02-28T08:23:53.675Z,46.61
2023-02-28T08:26:26.971Z,46.47
2023-02-28T08:28:57.125Z,46.09
2023-02-28T08:31:32.640Z,46.31
2023-02-28T08:34:02.032Z,46.22
2023-02-28T08:36:31.061Z,46.30
2023-02-28T08:39:02.612Z,46.10
2023-02-28T08:41:33.403Z,46.40
2023-02-28T08:44:09.868Z,46.44
2023-02-28T08:49:56.813Z,46.67
2023-02-28T08:52:28.475Z,46.62
2023-02-28T08:54:57.157Z,46.28
2023-02-28T08:57:28.715Z,45.91
2023-02-28T08:59:56.928Z,46.44
2023-02-28T09:02:25.561Z,46.67
2023-02-28T09:04:54.093Z,45.92
2023-02-28T09:07:22.278Z,46.03
2023-02-28T09:09:58.915Z,46.45
2023-02-28T09:12:30.147Z,46.27
2023-02-28T09:14:59.540Z,46.17
2023-02-28T09:17:30.842Z,46.13
2023-02-28T09:19:59.566Z,46.08
2023-02-28T09:22:28.763Z,46.01
2023-02-28T09:24:57.182Z,45.95
2023-02-28T09:30:23.345Z,46.02
2023-02-28T09:32:54.406Z,45.90
2023-02-28T09:35:24.570Z,45.61
2023-02-28T09:37:57.049Z,45.46
2023-02-28T09:40:27.140Z,45.48
2023-02-28T09:43:01.801Z,45.47
2023-02-28T09:45:35.910Z,45.44
2023-02-28T09:48:11.326Z,45.37
2023-02-28T09:50:43.087Z,45.67
2023-02-28T09:53:22.371Z,45.51
2023-02-28T09:55:56.033Z,45.38
2023-02-28T09:58:31.017Z,45.32
2023-02-28T10:01:09.681Z,45.36
2023-02-28T10:03:42.453Z,44.68
2023-02-28T10:06:16.751Z,44.72
2023-02-28T10:08:53.338Z,44.94
2023-02-28T10:11:24.078Z,44.51
2023-02-28T10:14:02.777Z,44.45
2023-02-28T10:16:36.967Z,44.23
2023-02-28T10:19:08.715Z,44.23
2023-02-28T10:21:41.572Z,44.09
2023-02-28T10:24:22.080Z,44.15
2023-02-28T10:26:52.490Z,43.81
2023-02-28T10:29:20.745Z,43.68
2023-02-28T10:31:52.401Z,43.51
2023-02-28T10:34:21.110Z,43.58
2023-02-28T10:36:53.477Z,43.52
2023-02-28T10:39:45.393Z,43.32
2023-02-28T10:42:46.685Z,43.25
2023-02-28T10:51:39.326Z,42.92
2023-02-28T11:00:41.377Z,42.74
2023-02-28T11:03:27.499Z,42.34
2023-02-28T11:05:57.540Z,42.10
2023-02-28T11:08:26.589Z,42.56
2023-02-28T11:11:01.307Z,42.38
2023-02-28T11:13:37.932Z,42.24
2023-02-28T11:16:10.815Z,42.39
2023-02-28T11:18:49.188Z,42.52
2023-02-28T11:21:36.241Z,42.86
2023-02-28T11:24:11.512Z,42.70
2023-02-28T11:26:44.534Z,42.44
2023-02-28T11:29:20.413Z,42.32
2023-02-28T11:32:20.939Z,42.27
2023-02-28T11:35:04.134Z,41.76
2023-02-28T11:37:33.653Z,41.72
2023-02-28T11:40:01.755Z,41.51
2023-02-28T11:42:48.446Z,41.42
2023-02-28T11:45:41.876Z,40.93
2023-02-28T11:48:21.169Z,41.04
2023-02-28T11:51:00.481Z,41.31
2023-02-28T11:53:46.428Z,40.88
2023-02-28T11:56:25.381Z,40.58
2023-02-28T11:59:03.523Z,40.87
2023-02-28T12:01:50.908Z,40.95
2023-02-28T12:04:35.485Z,41.06
2023-02-28T12:07:14.676Z,41.20
2023-02-28T12:09:51.798Z,40.87
2023-02-28T12:12:39.375Z,41.20
2023-02-28T12:15:30.634Z,40.87
2023-02-28T12:18:13.464Z,40.95
2023-02-28T12:20:52.287Z,40.75
2023-02-28T12:23:41.763Z,40.82
2023-02-28T12:26:18.561Z,41.25
2023-02-28T12:28:52.781Z,40.95
2023-02-28T12:31:24.294Z,41.03
2023-02-28T12:33:56.436Z,40.78
2023-02-28T12:36:27.404Z,40.78
2023-02-28T12:39:02.751Z,40.91
2023-02-28T12:41:42.314Z,40.83
2023-02-28T12:44:16.996Z,40.97
2023-02-28T12:46:50.831Z,41.08
2023-02-28T12:49:28.117Z,41.04
2023-02-28T12:51:56.376Z,40.90
2023-02-28T12:54:32.316Z,40.57
2023-02-28T12:57:11.860Z,40.04
2023-02-28T12:59:44.437Z,40.23
2023-02-28T13:02:35.835Z,40.00
2023-02-28T13:05:19.820Z,39.30
2023-02-28T13:08:35.645Z,38.99
2023-02-28T13:11:10.043Z,39.01
2023-02-28T13:13:47.190Z,38.78
2023-02-28T13:16:15.430Z,38.80
2023-02-28T13:18:46.598Z,38.12
2023-02-28T13:21:25.963Z,38.17
2023-02-28T13:24:04.434Z,38.32
2023-02-28T13:27:10.551Z,38.48
2023-02-28T13:29:41.573Z,38.39
2023-02-28T13:32:43.473Z,38.43
2023-02-28T13:35:36.258Z,38.59
2023-02-28T13:38:36.149Z,38.45
2023-02-28T13:41:41.673Z,38.49
2023-02-28T13:44:12.244Z,38.49
2023-02-28T13:47:23.399Z,38.13
2023-02-28T13:49:53.764Z,38.15
2023-02-28T13:52:25.957Z,38.44
2023-02-28T13:55:29.410Z,38.30
2023-02-28T13:58:13.999Z,38.30
2023-02-28T14:01:12.950Z,38.28
2023-02-28T14:04:01.907Z,38.32
2023-02-28T14:06:33.448Z,38.60
2023-02-28T14:09:08.498Z,38.25
2023-02-28T14:11:38.153Z,38.32
2023-02-28T14:14:07.632Z,38.55
2023-02-28T14:16:43.490Z,38.69
2023-02-28T14:19:27.781Z,38.52
2023-02-28T14:22:12.088Z,38.67
2023-02-28T14:25:06.230Z,38.72
2023-02-28T14:27:52.125Z,40.36
2023-02-28T14:30:45.583Z,40.55
2023-02-28T14:33:25.532Z,39.64
2023-02-28T14:36:08.368Z,37.81
2023-02-28T14:38:42.975Z,37.18
2023-02-28T14:41:20.112Z,37.31
2023-02-28T14:43:57.358Z,37.62
2023-02-28T14:46:30.376Z,37.61
2023-02-28T14:48:58.704Z,37.70
2023-02-28T14:51:28.115Z,37.76
2023-02-28T14:54:01.082Z,38.05
2023-02-28T14:56:35.729Z,37.93
2023-02-28T14:59:04.234Z,38.00
2023-02-28T15:01:33.162Z,37.00
2023-02-28T15:04:04.355Z,36.82
2023-02-28T15:06:35.067Z,36.86
2023-02-28T15:09:16.064Z,37.41
2023-02-28T15:11:47.651Z,37.65
2023-02-28T15:14:21.552Z,37.11
2023-02-28T15:17:12.058Z,37.26
2023-02-28T15:19:44.696Z,37.34
2023-02-28T15:22:22.540Z,37.65
2023-02-28T15:24:53.936Z,37.33
2023-02-28T15:27:24.532Z,37.32
2023-02-28T15:29:57.080Z,37.38
2023-02-28T15:32:32.646Z,37.81
2023-02-28T15:35:19.371Z,37.92
2023-02-28T15:37:51.230Z,38.29
2023-02-28T15:40:25.840Z,38.47
2023-02-28T15:43:07.721Z,38.63
2023-02-28T15:45:42.090Z,38.67
2023-02-28T15:48:19.304Z,38.58
2023-02-28T15:50:50.966Z,38.67
2023-02-28T15:53:24.048Z,37.98
2023-02-28T15:55:58.680Z,37.85
2023-02-28T15:58:27.412Z,37.77
2023-02-28T16:01:11.158Z,38.32
2023-02-28T16:03:47.438Z,38.85
2023-02-28T16:06:35.181Z,39.34
2023-02-28T16:09:09.037Z,39.86
2023-02-28T16:11:42.288Z,39.88
2023-02-28T16:14:19.454Z,40.08
2023-02-28T16:16:50.133Z,40.02
2023-02-28T16:19:18.267Z,40.40
2023-02-28T16:21:46.630Z,40.32
2023-02-28T16:24:16.434Z,40.38
2023-02-28T16:26:49.230Z,40.56
2023-02-28T16:29:29.782Z,40.70
2023-02-28T16:31:58.159Z,40.86
2023-02-28T16:34:26.461Z,41.16
2023-02-28T16:36:55.048Z,41.21
2023-02-28T16:39:25.084Z,41.34
2023-02-28T16:41:54.187Z,41.59
2023-02-28T16:44:29.549Z,41.61
2023-02-28T16:46:57.878Z,41.84
2023-02-28T16:49:25.879Z,42.03
2023-02-28T16:51:53.935Z,42.05
2023-02-28T16:54:21.965Z,42.02
2023-02-28T16:56:51.922Z,42.22
2023-02-28T16:59:23.746Z,42.37
2023-02-28T17:01:52.715Z,42.52
2023-02-28T17:04:20.808Z,42.78
2023-02-28T17:06:49.172Z,42.59
2023-02-28T17:09:21.004Z,42.82
2023-02-28T17:11:51.641Z,42.84
2023-02-28T17:14:19.589Z,43.20
2023-02-28T17:16:48.231Z,43.49
2023-02-28T17:19:19.758Z,43.42
2023-02-28T17:21:48.554Z,43.26
2023-02-28T17:24:22.091Z,44.01
2023-02-28T17:26:54.945Z,43.71
2023-02-28T17:29:25.515Z,43.60
2023-02-28T17:31:54.123Z,43.65
2023-02-28T17:34:22.686Z,43.65
2023-02-28T17:36:54.091Z,43.96
2023-02-28T17:39:25.346Z,43.72
2023-02-28T17:41:56.484Z,43.86
2023-02-28T17:44:26.168Z,43.85
2023-02-28T17:46:55.824Z,43.82
2023-02-28T17:49:24.966Z,43.81
2023-02-28T17:51:53.010Z,43.90
2023-02-28T17:54:20.969Z,43.89
2023-02-28T17:56:48.995Z,43.86
2023-02-28T17:59:18.853Z,44.06
2023-02-28T18:01:50.027Z,44.09
2023-02-28T18:04:18.443Z,44.02
2023-02-28T18:06:50.982Z,44.18
2023-02-28T18:09:23.006Z,44.29
2023-02-28T18:11:51.435Z,44.21
2023-02-28T18:14:23.784Z,44.32
2023-02-28T18:16:52.632Z,44.19
2023-02-28T18:19:21.246Z,44.60
2023-02-28T18:21:51.843Z,44.81
2023-02-28T18:24:21.006Z,44.73
2023-02-28T18:26:49.087Z,44.61
2023-02-28T18:29:22.083Z,44.86
2023-02-28T18:31:51.346Z,44.75
2023-02-28T18:34:21.783Z,44.68
2023-02-28T18:40:01.454Z,44.83
2023-02-28T18:42:31.028Z,44.98
2023-02-28T18:45:00.648Z,45.00
2023-02-28T18:47:28.673Z,44.51
2023-02-28T18:49:58.431Z,44.79
2023-02-28T18:52:27.829Z,44.91
2023-02-28T18:54:56.505Z,44.92
2023-02-28T18:57:24.686Z,44.75
2023-02-28T18:59:53.529Z,44.63
2023-02-28T19:02:23.103Z,44.64
2023-02-28T19:04:52.175Z,44.92
2023-02-28T19:07:20.179Z,44.79
2023-02-28T19:09:49.483Z,44.71
2023-02-28T19:12:20.680Z,44.88
2023-02-28T19:14:51.711Z,45.00
2023-02-28T19:17:20.327Z,44.96
2023-02-28T19:19:49.934Z,44.78
2023-02-28T19:22:18.163Z,45.17
2023-02-28T19:24:47.840Z,45.04
2023-02-28T19:27:17.342Z,45.44
2023-02-28T19:29:46.991Z,45.21
2023-02-28T19:32:15.067Z,45.41
2023-02-28T19:34:43.604Z,45.49
2023-02-28T19:37:14.117Z,45.72
2023-02-28T19:39:46.076Z,45.63
2023-02-28T19:42:15.989Z,45.62
2023-02-28T19:44:45.082Z,45.86
2023-02-28T19:47:15.148Z,45.91
2023-02-28T19:49:44.387Z,45.98
2023-02-28T19:52:15.535Z,46.51
2023-02-28T19:54:44.129Z,46.34
2023-02-28T19:57:12.770Z,46.53
2023-02-28T19:59:41.112Z,46.40
2023-02-28T20:02:14.993Z,46.46
2023-02-28T20:04:43.818Z,46.52
2023-02-28T20:07:13.634Z,46.63
2023-02-28T20:09:42.226Z,46.61
2023-02-28T20:12:23.166Z,46.80
2023-02-28T20:14:52.059Z,46.72
2023-02-28T20:17:20.511Z,46.95
2023-02-28T20:19:48.582Z,46.87
2023-02-28T20:22:18.630Z,47.03
2023-02-28T20:24:51.974Z,46.88
2023-02-28T20:27:20.054Z,46.91
2023-02-28T20:29:48.797Z,46.69
2023-02-28T20:32:18.259Z,47.00
2023-02-28T20:34:46.316Z,46.96
2023-02-28T20:37:16.877Z,46.84
2023-02-28T20:39:48.658Z,47.13
2023-02-28T20:42:17.166Z,46.80
2023-02-28T20:44:45.743Z,47.03
2023-02-28T20:47:13.831Z,47.34
2023-02-28T20:49:42.672Z,47.02
2023-02-28T20:52:10.788Z,47.29
2023-02-28T20:54:39.174Z,47.50
2023-02-28T20:57:10.128Z,47.61
2023-02-28T20:59:38.896Z,47.85
2023-02-28T21:02:07.472Z,47.76
2023-02-28T21:04:35.950Z,47.66
2023-02-28T21:07:04.558Z,47.45
2023-02-28T21:09:32.611Z,47.67
2023-02-28T21:12:00.908Z,47.48
2023-02-28T21:14:32.247Z,47.84
2023-02-28T21:17:00.629Z,47.76
2023-02-28T21:19:28.594Z,47.62
2023-02-28T21:21:58.656Z,47.55
2023-02-28T21:24:27.033Z,47.40
2023-02-28T21:26:57.060Z,47.48
2023-02-28T21:29:25.465Z,47.42
2023-02-28T21:31:55.820Z,47.51
2023-02-28T21:34:25.209Z,47.56
2023-02-28T21:36:54.205Z,47.61
2023-02-28T21:39:25.855Z,47.60
2023-02-28T21:41:56.915Z,47.32
2023-02-28T21:44:26.691Z,47.63
2023-02-28T21:46:58.177Z,47.67
2023-02-28T21:49:26.207Z,47.75
2023-02-28T21:51:57.559Z,47.89
2023-02-28T21:54:26.511Z,47.58
2023-02-28T21:56:56.897Z,48.06
2023-02-28T21:59:25.051Z,47.72
2023-02-28T22:01:55.036Z,47.67
2023-02-28T22:04:24.603Z,47.56
2023-02-28T22:06:54.533Z,47.76
2023-02-28T22:09:23.282Z,47.65
2023-02-28T22:11:51.838Z,47.44
2023-02-28T22:14:20.469Z,47.55
2023-02-28T22:16:52.662Z,47.84
2023-02-28T22:19:22.432Z,47.49
2023-02-28T22:21:53.944Z,47.28
2023-02-28T22:24:24.586Z,47.42
2023-02-28T22:26:53.249Z,47.33
2023-02-28T22:29:21.383Z,47.26
2023-02-28T22:31:49.626Z,47.18
2023-02-28T22:34:17.901Z,47.31
2023-02-28T22:36:46.121Z,47.58
2023-02-28T22:39:15.598Z,47.28
2023-02-28T22:41:43.893Z,47.45
2023-02-28T22:44:12.756Z,47.36
2023-02-28T22:46:41.717Z,47.49
2023-02-28T22:49:10.162Z,47.49
2023-02-28T22:51:38.163Z,47.44
2023-02-28T22:54:06.411Z,47.79
2023-02-28T22:56:35.837Z,47.73
2023-02-28T22:59:04.321Z,47.61
2023-02-28T23:01:33.802Z,47.53
2023-02-28T23:04:02.810Z,47.62
2023-02-28T23:06:32.904Z,47.27
2023-02-28T23:09:03.726Z,47.45
2023-02-28T23:11:34.213Z,47.23
2023-02-28T23:14:03.890Z,47.46
2023-02-28T23:16:34.637Z,47.63
2023-02-28T23:19:06.157Z,47.24
2023-02-28T23:21:34.902Z,47.54
2023-02-28T23:24:03.907Z,47.07
2023-02-28T23:26:33.396Z,46.96
2023-02-28T23:29:01.550Z,47.11
2023-02-28T23:31:31.524Z,46.62
2023-02-28T23:34:00.719Z,46.58
2023-02-28T23:36:29.631Z,46.71
2023-02-28T23:38:58.074Z,46.45
2023-02-28T23:41:27.530Z,46.94
2023-02-28T23:43:56.399Z,46.42
2023-02-28T23:46:24.505Z,46.61
2023-02-28T23:48:53.964Z,46.58
2023-02-28T23:51:23.569Z,46.61
2023-02-28T23:53:53.531Z,46.33
2023-02-28T23:56:23.789Z,46.43
2023-02-28T23:58:55.014Z,46.32
